sensor_id;sensor_type;location;lat;lon;timestamp;P1;durP1;ratioP1;P2;durP2;ratioP2
34737;SDS011;39910;47.154;27.614;2022-07-05T00:00:41;5.30;;;5.10;;
34737;SDS011;39910;47.154;27.614;2022-07-05T00:03:07;5.20;;;5.00;;
34737;SDS011;39910;47.154;27.614;2022-07-05T00:05:32;5.20;;;5.00;;
34737;SDS011;39910;47.154;27.614;2022-07-05T00:07:57;5.22;;;5.03;;
34737;SDS011;39910;47.154;27.614;2022-07-05T00:10:23;5.13;;;4.93;;
34737;SDS011;39910;47.154;27.614;2022-07-05T00:12:48;5.20;;;5.00;;
34737;SDS011;39910;47.154;27.614;2022-07-05T00:15:13;5.30;;;5.10;;
34737;SDS011;39910;47.154;27.614;2022-07-05T00:17:39;5.32;;;5.13;;
34737;SDS011;39910;47.154;27.614;2022-07-05T00:20:04;5.35;;;5.15;;
34737;SDS011;39910;47.154;27.614;2022-07-05T00:22:29;5.30;;;5.10;;
34737;SDS011;39910;47.154;27.614;2022-07-05T00:24:55;5.40;;;5.20;;
34737;SDS011;39910;47.154;27.614;2022-07-05T00:27:20;5.40;;;5.20;;
34737;SDS011;39910;47.154;27.614;2022-07-05T00:29:46;5.30;;;5.10;;
34737;SDS011;39910;47.154;27.614;2022-07-05T00:32:11;5.20;;;5.00;;
34737;SDS011;39910;47.154;27.614;2022-07-05T00:34:36;5.35;;;5.15;;
34737;SDS011;39910;47.154;27.614;2022-07-05T00:37:01;5.15;;;4.95;;
34737;SDS011;39910;47.154;27.614;2022-07-05T00:39:27;5.18;;;4.97;;
34737;SDS011;39910;47.154;27.614;2022-07-05T00:41:52;5.20;;;5.00;;
34737;SDS011;39910;47.154;27.614;2022-07-05T00:44:27;5.32;;;5.13;;
34737;SDS011;39910;47.154;27.614;2022-07-05T00:46:53;5.20;;;5.00;;
34737;SDS011;39910;47.154;27.614;2022-07-05T00:49:18;5.20;;;5.00;;
34737;SDS011;39910;47.154;27.614;2022-07-05T00:51:43;5.38;;;5.18;;
34737;SDS011;39910;47.154;27.614;2022-07-05T00:54:08;5.22;;;5.03;;
34737;SDS011;39910;47.154;27.614;2022-07-05T00:56:34;5.22;;;5.03;;
34737;SDS011;39910;47.154;27.614;2022-07-05T00:58:59;5.28;;;5.07;;
34737;SDS011;39910;47.154;27.614;2022-07-05T01:01:25;5.30;;;5.10;;
34737;SDS011;39910;47.154;27.614;2022-07-05T01:03:50;5.20;;;5.00;;
34737;SDS011;39910;47.154;27.614;2022-07-05T01:06:16;5.20;;;5.00;;
34737;SDS011;39910;47.154;27.614;2022-07-05T01:08:42;5.15;;;4.95;;
34737;SDS011;39910;47.154;27.614;2022-07-05T01:11:09;5.15;;;4.95;;
34737;SDS011;39910;47.154;27.614;2022-07-05T01:13:35;5.20;;;5.00;;
34737;SDS011;39910;47.154;27.614;2022-07-05T01:16:01;5.38;;;5.18;;
34737;SDS011;39910;47.154;27.614;2022-07-05T01:18:26;5.35;;;5.15;;
34737;SDS011;39910;47.154;27.614;2022-07-05T01:20:52;5.25;;;5.05;;
34737;SDS011;39910;47.154;27.614;2022-07-05T01:23:18;5.35;;;5.15;;
34737;SDS011;39910;47.154;27.614;2022-07-05T01:25:44;5.20;;;5.00;;
34737;SDS011;39910;47.154;27.614;2022-07-05T01:28:10;5.22;;;5.03;;
34737;SDS011;39910;47.154;27.614;2022-07-05T01:30:35;5.40;;;5.20;;
34737;SDS011;39910;47.154;27.614;2022-07-05T01:33:01;5.30;;;5.10;;
34737;SDS011;39910;47.154;27.614;2022-07-05T01:35:26;5.40;;;5.20;;
34737;SDS011;39910;47.154;27.614;2022-07-05T01:37:52;5.22;;;5.03;;
34737;SDS011;39910;47.154;27.614;2022-07-05T01:40:18;5.35;;;5.15;;
34737;SDS011;39910;47.154;27.614;2022-07-05T01:42:45;5.22;;;5.03;;
34737;SDS011;39910;47.154;27.614;2022-07-05T01:45:11;5.30;;;5.10;;
34737;SDS011;39910;47.154;27.614;2022-07-05T01:47:38;5.30;;;5.10;;
34737;SDS011;39910;47.154;27.614;2022-07-05T01:50:05;5.35;;;5.15;;
34737;SDS011;39910;47.154;27.614;2022-07-05T01:52:31;5.50;;;5.30;;
34737;SDS011;39910;47.154;27.614;2022-07-05T01:54:59;5.38;;;5.18;;
34737;SDS011;39910;47.154;27.614;2022-07-05T01:57:26;5.32;;;5.13;;
34737;SDS011;39910;47.154;27.614;2022-07-05T01:59:52;5.20;;;5.00;;
34737;SDS011;39910;47.154;27.614;2022-07-05T02:02:17;5.40;;;5.20;;
34737;SDS011;39910;47.154;27.614;2022-07-05T02:04:42;5.22;;;5.03;;
34737;SDS011;39910;47.154;27.614;2022-07-05T02:07:08;5.22;;;5.03;;
34737;SDS011;39910;47.154;27.614;2022-07-05T02:09:34;5.40;;;5.20;;
34737;SDS011;39910;47.154;27.614;2022-07-05T02:11:59;5.28;;;5.07;;
34737;SDS011;39910;47.154;27.614;2022-07-05T02:14:25;5.20;;;5.00;;
34737;SDS011;39910;47.154;27.614;2022-07-05T02:16:50;5.35;;;5.15;;
34737;SDS011;39910;47.154;27.614;2022-07-05T02:19:16;5.35;;;5.15;;
34737;SDS011;39910;47.154;27.614;2022-07-05T02:21:41;5.30;;;5.10;;
34737;SDS011;39910;47.154;27.614;2022-07-05T02:24:06;5.32;;;5.13;;
34737;SDS011;39910;47.154;27.614;2022-07-05T02:26:32;5.30;;;5.10;;
34737;SDS011;39910;47.154;27.614;2022-07-05T02:28:58;5.18;;;4.97;;
34737;SDS011;39910;47.154;27.614;2022-07-05T02:31:23;5.47;;;5.28;;
34737;SDS011;39910;47.154;27.614;2022-07-05T02:33:48;5.25;;;5.05;;
34737;SDS011;39910;47.154;27.614;2022-07-05T02:36:13;5.38;;;5.18;;
34737;SDS011;39910;47.154;27.614;2022-07-05T02:38:39;5.30;;;5.10;;
34737;SDS011;39910;47.154;27.614;2022-07-05T02:41:05;5.45;;;5.25;;
34737;SDS011;39910;47.154;27.614;2022-07-05T02:43:32;5.47;;;5.28;;
34737;SDS011;39910;47.154;27.614;2022-07-05T02:45:57;5.35;;;5.15;;
34737;SDS011;39910;47.154;27.614;2022-07-05T02:48:22;5.40;;;5.20;;
34737;SDS011;39910;47.154;27.614;2022-07-05T02:50:47;5.35;;;5.15;;
34737;SDS011;39910;47.154;27.614;2022-07-05T02:53:13;5.45;;;5.25;;
34737;SDS011;39910;47.154;27.614;2022-07-05T02:55:38;5.28;;;5.07;;
34737;SDS011;39910;47.154;27.614;2022-07-05T02:58:03;5.50;;;5.30;;
34737;SDS011;39910;47.154;27.614;2022-07-05T03:00:29;5.53;;;5.33;;
34737;SDS011;39910;47.154;27.614;2022-07-05T03:02:54;5.50;;;5.30;;
34737;SDS011;39910;47.154;27.614;2022-07-05T03:05:19;5.50;;;5.30;;
34737;SDS011;39910;47.154;27.614;2022-07-05T03:07:45;5.50;;;5.30;;
34737;SDS011;39910;47.154;27.614;2022-07-05T03:10:10;5.45;;;5.25;;
34737;SDS011;39910;47.154;27.614;2022-07-05T03:12:35;5.75;;;5.55;;
34737;SDS011;39910;47.154;27.614;2022-07-05T03:15:00;5.80;;;5.60;;
34737;SDS011;39910;47.154;27.614;2022-07-05T03:17:26;5.80;;;5.60;;
34737;SDS011;39910;47.154;27.614;2022-07-05T03:19:51;5.73;;;5.53;;
34737;SDS011;39910;47.154;27.614;2022-07-05T03:22:16;5.78;;;5.57;;
34737;SDS011;39910;47.154;27.614;2022-07-05T03:24:41;6.00;;;5.80;;
34737;SDS011;39910;47.154;27.614;2022-07-05T03:27:07;5.90;;;5.70;;
34737;SDS011;39910;47.154;27.614;2022-07-05T03:29:32;5.90;;;5.70;;
34737;SDS011;39910;47.154;27.614;2022-07-05T03:31:57;5.93;;;5.72;;
34737;SDS011;39910;47.154;27.614;2022-07-05T03:34:23;6.00;;;5.80;;
34737;SDS011;39910;47.154;27.614;2022-07-05T03:36:48;6.00;;;5.80;;
34737;SDS011;39910;47.154;27.614;2022-07-05T03:39:13;6.00;;;5.80;;
34737;SDS011;39910;47.154;27.614;2022-07-05T03:41:39;5.88;;;5.68;;
34737;SDS011;39910;47.154;27.614;2022-07-05T03:44:04;5.90;;;5.70;;
34737;SDS011;39910;47.154;27.614;2022-07-05T03:46:29;6.03;;;5.83;;
34737;SDS011;39910;47.154;27.614;2022-07-05T03:48:55;6.10;;;5.90;;
34737;SDS011;39910;47.154;27.614;2022-07-05T03:51:20;6.10;;;5.90;;
34737;SDS011;39910;47.154;27.614;2022-07-05T03:53:45;6.20;;;6.00;;
34737;SDS011;39910;47.154;27.614;2022-07-05T03:56:11;6.10;;;5.90;;
34737;SDS011;39910;47.154;27.614;2022-07-05T03:58:36;6.00;;;5.80;;
34737;SDS011;39910;47.154;27.614;2022-07-05T04:01:02;6.00;;;5.80;;
34737;SDS011;39910;47.154;27.614;2022-07-05T04:03:27;6.10;;;5.90;;
34737;SDS011;39910;47.154;27.614;2022-07-05T04:05:52;6.07;;;5.87;;
34737;SDS011;39910;47.154;27.614;2022-07-05T04:08:17;6.13;;;5.93;;
34737;SDS011;39910;47.154;27.614;2022-07-05T04:10:43;6.10;;;5.90;;
34737;SDS011;39910;47.154;27.614;2022-07-05T04:13:08;6.20;;;6.00;;
34737;SDS011;39910;47.154;27.614;2022-07-05T04:15:33;6.22;;;6.00;;
34737;SDS011;39910;47.154;27.614;2022-07-05T04:17:59;6.35;;;6.10;;
34737;SDS011;39910;47.154;27.614;2022-07-05T04:20:24;6.20;;;5.97;;
34737;SDS011;39910;47.154;27.614;2022-07-05T04:22:50;6.50;;;6.20;;
34737;SDS011;39910;47.154;27.614;2022-07-05T04:25:16;6.30;;;6.03;;
34737;SDS011;39910;47.154;27.614;2022-07-05T04:27:45;6.20;;;5.97;;
34737;SDS011;39910;47.154;27.614;2022-07-05T04:30:11;6.10;;;5.90;;
34737;SDS011;39910;47.154;27.614;2022-07-05T04:32:36;6.00;;;5.80;;
34737;SDS011;39910;47.154;27.614;2022-07-05T04:35:01;6.10;;;5.90;;
34737;SDS011;39910;47.154;27.614;2022-07-05T04:37:27;6.40;;;6.10;;
34737;SDS011;39910;47.154;27.614;2022-07-05T04:39:52;6.15;;;5.95;;
34737;SDS011;39910;47.154;27.614;2022-07-05T04:42:17;6.43;;;6.13;;
34737;SDS011;39910;47.154;27.614;2022-07-05T04:44:43;6.38;;;6.07;;
34737;SDS011;39910;47.154;27.614;2022-07-05T04:47:08;6.37;;;6.07;;
34737;SDS011;39910;47.154;27.614;2022-07-05T04:49:33;6.23;;;6.03;;
34737;SDS011;39910;47.154;27.614;2022-07-05T04:51:59;6.50;;;6.20;;
34737;SDS011;39910;47.154;27.614;2022-07-05T04:54:24;6.43;;;6.13;;
34737;SDS011;39910;47.154;27.614;2022-07-05T04:56:49;6.57;;;6.27;;
34737;SDS011;39910;47.154;27.614;2022-07-05T04:59:15;6.40;;;6.10;;
34737;SDS011;39910;47.154;27.614;2022-07-05T05:01:40;6.90;;;6.60;;
34737;SDS011;39910;47.154;27.614;2022-07-05T05:04:05;6.60;;;6.30;;
34737;SDS011;39910;47.154;27.614;2022-07-05T05:06:31;6.38;;;6.07;;
34737;SDS011;39910;47.154;27.614;2022-07-05T05:08:56;6.67;;;6.37;;
34737;SDS011;39910;47.154;27.614;2022-07-05T05:11:22;6.40;;;6.10;;
34737;SDS011;39910;47.154;27.614;2022-07-05T05:13:47;6.33;;;6.07;;
34737;SDS011;39910;47.154;27.614;2022-07-05T05:16:12;6.33;;;6.07;;
34737;SDS011;39910;47.154;27.614;2022-07-05T05:18:38;6.50;;;6.20;;
34737;SDS011;39910;47.154;27.614;2022-07-05T05:21:03;6.50;;;6.20;;
34737;SDS011;39910;47.154;27.614;2022-07-05T05:23:29;5.85;;;5.65;;
34737;SDS011;39910;47.154;27.614;2022-07-05T05:25:54;6.45;;;6.15;;
34737;SDS011;39910;47.154;27.614;2022-07-05T05:28:20;6.60;;;6.30;;
34737;SDS011;39910;47.154;27.614;2022-07-05T05:30:45;6.30;;;6.05;;
34737;SDS011;39910;47.154;27.614;2022-07-05T05:33:11;6.55;;;6.25;;
34737;SDS011;39910;47.154;27.614;2022-07-05T05:35:37;6.70;;;6.40;;
34737;SDS011;39910;47.154;27.614;2022-07-05T05:38:02;6.67;;;6.37;;
34737;SDS011;39910;47.154;27.614;2022-07-05T05:40:27;6.77;;;6.47;;
34737;SDS011;39910;47.154;27.614;2022-07-05T05:42:53;6.67;;;6.37;;
34737;SDS011;39910;47.154;27.614;2022-07-05T05:45:19;6.70;;;6.40;;
34737;SDS011;39910;47.154;27.614;2022-07-05T05:50:13;6.72;;;6.43;;
34737;SDS011;39910;47.154;27.614;2022-07-05T05:52:38;6.57;;;6.28;;
34737;SDS011;39910;47.154;27.614;2022-07-05T05:55:04;6.83;;;6.53;;
34737;SDS011;39910;47.154;27.614;2022-07-05T05:57:31;7.00;;;6.70;;
34737;SDS011;39910;47.154;27.614;2022-07-05T05:59:56;7.07;;;6.78;;
34737;SDS011;39910;47.154;27.614;2022-07-05T06:02:21;6.90;;;6.60;;
34737;SDS011;39910;47.154;27.614;2022-07-05T06:04:47;6.83;;;6.53;;
34737;SDS011;39910;47.154;27.614;2022-07-05T06:07:12;6.87;;;6.57;;
34737;SDS011;39910;47.154;27.614;2022-07-05T06:09:37;6.67;;;6.37;;
34737;SDS011;39910;47.154;27.614;2022-07-05T06:12:02;6.80;;;6.50;;
34737;SDS011;39910;47.154;27.614;2022-07-05T06:14:28;6.55;;;6.25;;
34737;SDS011;39910;47.154;27.614;2022-07-05T06:16:53;6.53;;;6.23;;
34737;SDS011;39910;47.154;27.614;2022-07-05T06:19:18;6.60;;;6.30;;
34737;SDS011;39910;47.154;27.614;2022-07-05T06:21:44;6.57;;;6.27;;
34737;SDS011;39910;47.154;27.614;2022-07-05T06:24:09;6.63;;;6.33;;
34737;SDS011;39910;47.154;27.614;2022-07-05T06:26:34;6.63;;;6.32;;
34737;SDS011;39910;47.154;27.614;2022-07-05T06:29:00;6.73;;;6.43;;
34737;SDS011;39910;47.154;27.614;2022-07-05T06:31:25;6.80;;;6.50;;
34737;SDS011;39910;47.154;27.614;2022-07-05T06:33:50;6.50;;;6.20;;
34737;SDS011;39910;47.154;27.614;2022-07-05T06:36:16;6.50;;;6.20;;
34737;SDS011;39910;47.154;27.614;2022-07-05T06:38:41;6.93;;;6.63;;
34737;SDS011;39910;47.154;27.614;2022-07-05T06:41:06;6.90;;;6.60;;
34737;SDS011;39910;47.154;27.614;2022-07-05T06:43:32;6.70;;;6.40;;
34737;SDS011;39910;47.154;27.614;2022-07-05T06:45:57;6.80;;;6.50;;
34737;SDS011;39910;47.154;27.614;2022-07-05T06:48:22;6.80;;;6.50;;
34737;SDS011;39910;47.154;27.614;2022-07-05T06:50:48;6.97;;;6.67;;
34737;SDS011;39910;47.154;27.614;2022-07-05T06:53:13;6.95;;;6.65;;
34737;SDS011;39910;47.154;27.614;2022-07-05T06:55:38;6.90;;;6.60;;
34737;SDS011;39910;47.154;27.614;2022-07-05T06:58:09;6.93;;;6.63;;
34737;SDS011;39910;47.154;27.614;2022-07-05T07:00:34;6.93;;;6.63;;
34737;SDS011;39910;47.154;27.614;2022-07-05T07:03:00;7.18;;;6.88;;
34737;SDS011;39910;47.154;27.614;2022-07-05T07:05:25;7.00;;;6.70;;
34737;SDS011;39910;47.154;27.614;2022-07-05T07:07:51;6.95;;;6.65;;
34737;SDS011;39910;47.154;27.614;2022-07-05T07:10:35;7.07;;;6.78;;
34737;SDS011;39910;47.154;27.614;2022-07-05T07:13:01;7.15;;;6.85;;
34737;SDS011;39910;47.154;27.614;2022-07-05T07:15:27;7.20;;;6.90;;
34737;SDS011;39910;47.154;27.614;2022-07-05T07:17:52;7.22;;;6.93;;
34737;SDS011;39910;47.154;27.614;2022-07-05T07:20:17;7.17;;;6.87;;
34737;SDS011;39910;47.154;27.614;2022-07-05T07:22:43;7.15;;;6.85;;
34737;SDS011;39910;47.154;27.614;2022-07-05T07:25:08;7.23;;;6.93;;
34737;SDS011;39910;47.154;27.614;2022-07-05T07:27:43;6.97;;;6.68;;
34737;SDS011;39910;47.154;27.614;2022-07-05T07:30:10;6.80;;;6.50;;
34737;SDS011;39910;47.154;27.614;2022-07-05T07:32:35;6.80;;;6.50;;
34737;SDS011;39910;47.154;27.614;2022-07-05T07:35:00;6.33;;;6.07;;
34737;SDS011;39910;47.154;27.614;2022-07-05T07:37:26;6.67;;;6.37;;
34737;SDS011;39910;47.154;27.614;2022-07-05T07:39:51;6.60;;;6.30;;
34737;SDS011;39910;47.154;27.614;2022-07-05T07:42:16;6.70;;;6.40;;
34737;SDS011;39910;47.154;27.614;2022-07-05T07:44:42;6.50;;;6.20;;
34737;SDS011;39910;47.154;27.614;2022-07-05T07:47:07;6.20;;;6.00;;
34737;SDS011;39910;47.154;27.614;2022-07-05T07:49:32;6.28;;;6.05;;
34737;SDS011;39910;47.154;27.614;2022-07-05T07:51:58;6.00;;;5.80;;
34737;SDS011;39910;47.154;27.614;2022-07-05T07:54:23;6.13;;;5.93;;
34737;SDS011;39910;47.154;27.614;2022-07-05T07:56:48;6.00;;;5.80;;
34737;SDS011;39910;47.154;27.614;2022-07-05T07:59:13;5.82;;;5.63;;
34737;SDS011;39910;47.154;27.614;2022-07-05T08:01:39;6.00;;;5.80;;
34737;SDS011;39910;47.154;27.614;2022-07-05T08:04:04;5.95;;;5.75;;
34737;SDS011;39910;47.154;27.614;2022-07-05T08:06:30;6.27;;;6.03;;
34737;SDS011;39910;47.154;27.614;2022-07-05T08:08:55;6.03;;;5.82;;
34737;SDS011;39910;47.154;27.614;2022-07-05T08:11:21;5.75;;;5.55;;
34737;SDS011;39910;47.154;27.614;2022-07-05T08:13:47;5.85;;;5.65;;
34737;SDS011;39910;47.154;27.614;2022-07-05T08:16:13;5.85;;;5.65;;
34737;SDS011;39910;47.154;27.614;2022-07-05T08:18:38;5.93;;;5.72;;
34737;SDS011;39910;47.154;27.614;2022-07-05T08:21:42;6.00;;;5.80;;
34737;SDS011;39910;47.154;27.614;2022-07-05T08:24:08;5.90;;;5.70;;
34737;SDS011;39910;47.154;27.614;2022-07-05T08:26:34;5.80;;;5.60;;
34737;SDS011;39910;47.154;27.614;2022-07-05T08:29:00;5.80;;;5.60;;
34737;SDS011;39910;47.154;27.614;2022-07-05T08:31:27;6.10;;;5.90;;
34737;SDS011;39910;47.154;27.614;2022-07-05T08:33:52;5.72;;;5.53;;
34737;SDS011;39910;47.154;27.614;2022-07-05T08:36:17;5.73;;;5.53;;
34737;SDS011;39910;47.154;27.614;2022-07-05T08:38:43;5.78;;;5.57;;
34737;SDS011;39910;47.154;27.614;2022-07-05T08:41:09;5.70;;;5.50;;
34737;SDS011;39910;47.154;27.614;2022-07-05T08:43:35;5.75;;;5.55;;
34737;SDS011;39910;47.154;27.614;2022-07-05T08:46:01;5.80;;;5.60;;
34737;SDS011;39910;47.154;27.614;2022-07-05T08:48:27;5.90;;;5.70;;
34737;SDS011;39910;47.154;27.614;2022-07-05T08:50:52;5.90;;;5.70;;
34737;SDS011;39910;47.154;27.614;2022-07-05T08:53:19;5.90;;;5.70;;
34737;SDS011;39910;47.154;27.614;2022-07-05T08:55:45;5.90;;;5.70;;
34737;SDS011;39910;47.154;27.614;2022-07-05T08:58:10;5.90;;;5.70;;
34737;SDS011;39910;47.154;27.614;2022-07-05T09:00:36;5.93;;;5.72;;
34737;SDS011;39910;47.154;27.614;2022-07-05T09:03:01;5.85;;;5.65;;
34737;SDS011;39910;47.154;27.614;2022-07-05T09:05:27;5.90;;;5.70;;
34737;SDS011;39910;47.154;27.614;2022-07-05T09:08:00;5.85;;;5.65;;
34737;SDS011;39910;47.154;27.614;2022-07-05T09:10:26;5.85;;;5.65;;
34737;SDS011;39910;47.154;27.614;2022-07-05T09:12:52;5.88;;;5.68;;
34737;SDS011;39910;47.154;27.614;2022-07-05T09:15:17;5.90;;;5.70;;
34737;SDS011;39910;47.154;27.614;2022-07-05T09:17:43;5.85;;;5.65;;
34737;SDS011;39910;47.154;27.614;2022-07-05T09:20:10;5.63;;;5.43;;
34737;SDS011;39910;47.154;27.614;2022-07-05T09:22:50;5.60;;;5.40;;
34737;SDS011;39910;47.154;27.614;2022-07-05T09:25:39;5.80;;;5.60;;
34737;SDS011;39910;47.154;27.614;2022-07-05T09:28:04;5.80;;;5.60;;
34737;SDS011;39910;47.154;27.614;2022-07-05T09:35:33;5.75;;;5.55;;
34737;SDS011;39910;47.154;27.614;2022-07-05T09:37:59;5.45;;;5.25;;
34737;SDS011;39910;47.154;27.614;2022-07-05T09:40:28;5.80;;;5.60;;
34737;SDS011;39910;47.154;27.614;2022-07-05T09:42:54;5.60;;;5.40;;
34737;SDS011;39910;47.154;27.614;2022-07-05T09:45:34;5.70;;;5.50;;
34737;SDS011;39910;47.154;27.614;2022-07-05T09:48:00;5.60;;;5.40;;
34737;SDS011;39910;47.154;27.614;2022-07-05T09:50:36;5.50;;;5.30;;
34737;SDS011;39910;47.154;27.614;2022-07-05T09:53:02;5.60;;;5.40;;
34737;SDS011;39910;47.154;27.614;2022-07-05T09:55:28;5.70;;;5.50;;
34737;SDS011;39910;47.154;27.614;2022-07-05T09:57:53;5.70;;;5.50;;
34737;SDS011;39910;47.154;27.614;2022-07-05T10:00:22;5.55;;;5.35;;
34737;SDS011;39910;47.154;27.614;2022-07-05T10:07:40;5.70;;;5.50;;
34737;SDS011;39910;47.154;27.614;2022-07-05T10:10:06;5.50;;;5.30;;
34737;SDS011;39910;47.154;27.614;2022-07-05T10:12:31;5.70;;;5.50;;
34737;SDS011;39910;47.154;27.614;2022-07-05T10:14:58;5.70;;;5.50;;
34737;SDS011;39910;47.154;27.614;2022-07-05T10:17:24;5.53;;;5.32;;
34737;SDS011;39910;47.154;27.614;2022-07-05T10:19:50;5.60;;;5.40;;
34737;SDS011;39910;47.154;27.614;2022-07-05T10:22:16;5.70;;;5.50;;
34737;SDS011;39910;47.154;27.614;2022-07-05T10:24:41;5.50;;;5.30;;
34737;SDS011;39910;47.154;27.614;2022-07-05T10:27:07;5.57;;;5.38;;
34737;SDS011;39910;47.154;27.614;2022-07-05T10:29:33;5.50;;;5.30;;
34737;SDS011;39910;47.154;27.614;2022-07-05T10:31:59;5.60;;;5.40;;
34737;SDS011;39910;47.154;27.614;2022-07-05T10:34:24;5.40;;;5.20;;
34737;SDS011;39910;47.154;27.614;2022-07-05T10:36:50;5.40;;;5.20;;
34737;SDS011;39910;47.154;27.614;2022-07-05T10:39:15;5.40;;;5.20;;
34737;SDS011;39910;47.154;27.614;2022-07-05T10:41:41;5.47;;;5.28;;
34737;SDS011;39910;47.154;27.614;2022-07-05T10:44:07;5.70;;;5.50;;
34737;SDS011;39910;47.154;27.614;2022-07-05T10:46:36;5.57;;;5.38;;
34737;SDS011;39910;47.154;27.614;2022-07-05T10:49:20;5.60;;;5.40;;
34737;SDS011;39910;47.154;27.614;2022-07-05T10:51:45;5.78;;;5.57;;
34737;SDS011;39910;47.154;27.614;2022-07-05T10:54:13;5.60;;;5.40;;
34737;SDS011;39910;47.154;27.614;2022-07-05T10:56:38;5.70;;;5.50;;
34737;SDS011;39910;47.154;27.614;2022-07-05T10:59:05;5.50;;;5.30;;
34737;SDS011;39910;47.154;27.614;2022-07-05T11:01:33;5.50;;;5.30;;
34737;SDS011;39910;47.154;27.614;2022-07-05T11:13:52;5.65;;;5.45;;
34737;SDS011;39910;47.154;27.614;2022-07-05T11:18:46;5.60;;;5.40;;
34737;SDS011;39910;47.154;27.614;2022-07-05T11:23:43;5.50;;;5.30;;
34737;SDS011;39910;47.154;27.614;2022-07-05T11:26:08;5.70;;;5.50;;
34737;SDS011;39910;47.154;27.614;2022-07-05T11:28:46;5.65;;;5.45;;
34737;SDS011;39910;47.154;27.614;2022-07-05T11:31:12;5.53;;;5.32;;
34737;SDS011;39910;47.154;27.614;2022-07-05T11:33:42;5.70;;;5.50;;
34737;SDS011;39910;47.154;27.614;2022-07-05T11:36:21;5.70;;;5.50;;
34737;SDS011;39910;47.154;27.614;2022-07-05T11:39:09;5.63;;;5.43;;
34737;SDS011;39910;47.154;27.614;2022-07-05T11:41:36;5.70;;;5.50;;
34737;SDS011;39910;47.154;27.614;2022-07-05T11:44:02;5.60;;;5.40;;
34737;SDS011;39910;47.154;27.614;2022-07-05T11:46:27;5.50;;;5.30;;
34737;SDS011;39910;47.154;27.614;2022-07-05T11:48:53;5.60;;;5.40;;
34737;SDS011;39910;47.154;27.614;2022-07-05T11:51:18;5.60;;;5.40;;
34737;SDS011;39910;47.154;27.614;2022-07-05T11:53:44;5.70;;;5.50;;
34737;SDS011;39910;47.154;27.614;2022-07-05T11:56:10;5.68;;;5.47;;
34737;SDS011;39910;47.154;27.614;2022-07-05T11:58:35;5.60;;;5.40;;
34737;SDS011;39910;47.154;27.614;2022-07-05T12:01:00;5.80;;;5.60;;
34737;SDS011;39910;47.154;27.614;2022-07-05T12:03:26;5.60;;;5.40;;
34737;SDS011;39910;47.154;27.614;2022-07-05T12:05:52;5.60;;;5.40;;
34737;SDS011;39910;47.154;27.614;2022-07-05T12:08:23;5.70;;;5.50;;
34737;SDS011;39910;47.154;27.614;2022-07-05T12:10:49;5.80;;;5.60;;
34737;SDS011;39910;47.154;27.614;2022-07-05T12:16:27;5.55;;;5.35;;
34737;SDS011;39910;47.154;27.614;2022-07-05T12:18:53;5.60;;;5.40;;
34737;SDS011;39910;47.154;27.614;2022-07-05T12:21:25;5.80;;;5.60;;
34737;SDS011;39910;47.154;27.614;2022-07-05T12:23:51;5.65;;;5.45;;
34737;SDS011;39910;47.154;27.614;2022-07-05T12:26:16;5.65;;;5.45;;
34737;SDS011;39910;47.154;27.614;2022-07-05T12:28:42;5.60;;;5.40;;
34737;SDS011;39910;47.154;27.614;2022-07-05T12:31:42;5.60;;;5.40;;
34737;SDS011;39910;47.154;27.614;2022-07-05T12:34:15;5.60;;;5.40;;
34737;SDS011;39910;47.154;27.614;2022-07-05T12:36:44;5.50;;;5.30;;
34737;SDS011;39910;47.154;27.614;2022-07-05T12:39:09;5.55;;;5.35;;
34737;SDS011;39910;47.154;27.614;2022-07-05T12:41:35;5.53;;;5.32;;
34737;SDS011;39910;47.154;27.614;2022-07-05T12:44:06;5.53;;;5.32;;
34737;SDS011;39910;47.154;27.614;2022-07-05T12:46:35;5.60;;;5.40;;
34737;SDS011;39910;47.154;27.614;2022-07-05T12:49:03;5.60;;;5.40;;
34737;SDS011;39910;47.154;27.614;2022-07-05T12:51:36;5.70;;;5.50;;
34737;SDS011;39910;47.154;27.614;2022-07-05T12:54:01;5.35;;;5.15;;
34737;SDS011;39910;47.154;27.614;2022-07-05T12:56:52;5.53;;;5.32;;
34737;SDS011;39910;47.154;27.614;2022-07-05T12:59:36;5.32;;;5.13;;
34737;SDS011;39910;47.154;27.614;2022-07-05T13:02:02;5.40;;;5.20;;
34737;SDS011;39910;47.154;27.614;2022-07-05T13:04:28;5.60;;;5.40;;
34737;SDS011;39910;47.154;27.614;2022-07-05T13:11:52;5.50;;;5.30;;
34737;SDS011;39910;47.154;27.614;2022-07-05T13:14:29;5.60;;;5.40;;
34737;SDS011;39910;47.154;27.614;2022-07-05T13:16:54;5.50;;;5.30;;
34737;SDS011;39910;47.154;27.614;2022-07-05T13:19:19;5.57;;;5.37;;
34737;SDS011;39910;47.154;27.614;2022-07-05T13:21:45;5.67;;;5.47;;
34737;SDS011;39910;47.154;27.614;2022-07-05T13:24:10;5.57;;;5.37;;
34737;SDS011;39910;47.154;27.614;2022-07-05T13:26:35;5.50;;;5.30;;
34737;SDS011;39910;47.154;27.614;2022-07-05T13:29:00;5.45;;;5.25;;
34737;SDS011;39910;47.154;27.614;2022-07-05T13:31:26;5.50;;;5.30;;
34737;SDS011;39910;47.154;27.614;2022-07-05T13:33:53;5.70;;;5.50;;
34737;SDS011;39910;47.154;27.614;2022-07-05T13:36:19;5.50;;;5.30;;
34737;SDS011;39910;47.154;27.614;2022-07-05T13:38:44;5.40;;;5.20;;
34737;SDS011;39910;47.154;27.614;2022-07-05T13:41:09;5.50;;;5.30;;
34737;SDS011;39910;47.154;27.614;2022-07-05T13:43:35;5.57;;;5.38;;
34737;SDS011;39910;47.154;27.614;2022-07-05T13:46:00;5.70;;;5.50;;
34737;SDS011;39910;47.154;27.614;2022-07-05T13:48:25;5.50;;;5.30;;
34737;SDS011;39910;47.154;27.614;2022-07-05T13:50:50;5.50;;;5.30;;
34737;SDS011;39910;47.154;27.614;2022-07-05T13:53:16;5.50;;;5.30;;
34737;SDS011;39910;47.154;27.614;2022-07-05T13:55:41;5.57;;;5.38;;
34737;SDS011;39910;47.154;27.614;2022-07-05T13:58:06;5.50;;;5.30;;
34737;SDS011;39910;47.154;27.614;2022-07-05T14:00:32;5.37;;;5.17;;
34737;SDS011;39910;47.154;27.614;2022-07-05T14:02:57;5.60;;;5.40;;
34737;SDS011;39910;47.154;27.614;2022-07-05T14:05:22;5.30;;;5.10;;
34737;SDS011;39910;47.154;27.614;2022-07-05T14:07:48;5.68;;;5.47;;
34737;SDS011;39910;47.154;27.614;2022-07-05T14:10:13;5.38;;;5.18;;
34737;SDS011;39910;47.154;27.614;2022-07-05T14:12:39;6.43;;;6.13;;
34737;SDS011;39910;47.154;27.614;2022-07-05T14:15:04;5.43;;;5.22;;
34737;SDS011;39910;47.154;27.614;2022-07-05T14:17:30;5.70;;;5.50;;
34737;SDS011;39910;47.154;27.614;2022-07-05T14:19:55;5.40;;;5.20;;
34737;SDS011;39910;47.154;27.614;2022-07-05T14:22:21;5.60;;;5.40;;
34737;SDS011;39910;47.154;27.614;2022-07-05T14:24:46;5.50;;;5.30;;
34737;SDS011;39910;47.154;27.614;2022-07-05T14:27:11;5.70;;;5.50;;
34737;SDS011;39910;47.154;27.614;2022-07-05T14:29:37;5.50;;;5.30;;
34737;SDS011;39910;47.154;27.614;2022-07-05T14:32:03;5.72;;;5.53;;
34737;SDS011;39910;47.154;27.614;2022-07-05T14:34:28;5.90;;;5.70;;
34737;SDS011;39910;47.154;27.614;2022-07-05T14:36:54;5.72;;;5.53;;
34737;SDS011;39910;47.154;27.614;2022-07-05T14:39:19;5.60;;;5.40;;
34737;SDS011;39910;47.154;27.614;2022-07-05T14:41:45;5.60;;;5.40;;
34737;SDS011;39910;47.154;27.614;2022-07-05T14:44:10;5.50;;;5.30;;
34737;SDS011;39910;47.154;27.614;2022-07-05T14:46:36;5.68;;;5.47;;
34737;SDS011;39910;47.154;27.614;2022-07-05T14:49:01;5.67;;;5.47;;
34737;SDS011;39910;47.154;27.614;2022-07-05T14:51:27;5.70;;;5.50;;
34737;SDS011;39910;47.154;27.614;2022-07-05T14:53:53;5.78;;;5.57;;
34737;SDS011;39910;47.154;27.614;2022-07-05T14:56:18;5.72;;;5.53;;
34737;SDS011;39910;47.154;27.614;2022-07-05T14:58:43;5.40;;;5.20;;
34737;SDS011;39910;47.154;27.614;2022-07-05T15:01:09;5.60;;;5.40;;
34737;SDS011;39910;47.154;27.614;2022-07-05T15:03:34;5.70;;;5.50;;